Time;durP1;ratioP1;P1;durP2;ratioP2;P2;SDS_P1;SDS_P2;PMS_P1;PMS_P2;Temp;Humidity;BMP_temperature;BMP_pressure;BME280_temperature;BME280_humidity;BME280_pressure;Samples;Min_cycle;Max_cycle;Signal;HPM_P1;HPM_P2
2022/02/07 00:00:40;;;;;;;0.82;0.20;;;;;;;4.69;100.00;94046.03;5073638;28;20391;-65
2022/02/07 00:03:10;;;;;;;0.20;0.20;;;;;;;4.59;100.00;94070.59;5073519;28;20036;-65
2022/02/07 00:05:43;;;;;;;0.60;0.20;;;;;;;4.55;100.00;94111.13;5073559;28;20024;-65
2022/02/07 00:08:15;;;;;;;0.20;0.20;;;;;;;4.55;100.00;94096.00;5072186;28;20119;-66
2022/02/07 00:10:41;;;;;;;1.05;0.35;;;;;;;4.49;100.00;94115.59;5073257;28;20059;-66
2022/02/07 00:13:08;;;;;;;1.65;0.35;;;;;;;4.42;100.00;94095.63;5073639;28;20410;-66
2022/02/07 00:15:35;;;;;;;0.40;0.25;;;;;;;4.40;100.00;94098.53;5073723;28;20067;-66
2022/02/07 00:18:13;;;;;;;0.20;0.20;;;;;;;4.38;100.00;94118.41;5071915;28;20029;-66
2022/02/07 00:20:38;;;;;;;0.20;0.20;;;;;;;4.34;100.00;94089.75;5073760;28;20052;-65
2022/02/07 00:23:04;;;;;;;0.77;0.30;;;;;;;4.41;100.00;94115.25;5073644;28;20552;-65
2022/02/07 00:25:29;;;;;;;0.25;0.20;;;;;;;4.40;100.00;94121.59;5072103;28;20024;-63
2022/02/07 00:27:55;;;;;;;0.60;0.25;;;;;;;4.43;100.00;94127.19;5073269;28;20082;-64
2022/02/07 00:30:22;;;;;;;0.20;0.20;;;;;;;4.38;100.00;94143.06;5073168;28;20024;-66
2022/02/07 00:32:48;;;;;;;0.20;0.20;;;;;;;4.35;100.00;94125.00;5055104;28;20035;-65
2022/02/07 00:35:17;;;;;;;0.50;0.20;;;;;;;4.43;100.00;94134.34;5072959;28;20032;-64
2022/02/07 00:37:47;;;;;;;0.15;0.15;;;;;;;4.46;100.00;94139.97;5073001;28;20454;-63
2022/02/07 00:42:54;;;;;;;0.20;0.20;;;;;;;4.43;100.00;94184.72;5072877;28;20483;-65
2022/02/07 00:45:48;;;;;;;0.20;0.20;;;;;;;4.40;100.00;94158.72;5072751;28;20028;-64
2022/02/07 00:48:16;;;;;;;0.20;0.20;;;;;;;4.36;100.00;94179.63;5071199;28;20135;-64
2022/02/07 00:50:44;;;;;;;0.20;0.20;;;;;;;4.35;100.00;94181.47;5072657;28;20029;-66
2022/02/07 00:53:13;;;;;;;0.20;0.20;;;;;;;4.32;100.00;94173.19;5071480;28;20036;-65
2022/02/07 00:55:38;;;;;;;0.20;0.20;;;;;;;4.35;100.00;94204.53;5072605;28;20031;-64
2022/02/07 00:58:07;;;;;;;0.20;0.20;;;;;;;4.32;100.00;94205.81;5072610;28;20028;-63
2022/02/07 01:00:33;;;;;;;0.30;0.30;;;;;;;4.34;100.00;94197.59;5071686;28;20489;-64
2022/02/07 01:03:01;;;;;;;0.20;0.20;;;;;;;4.34;100.00;94208.22;5072699;28;20103;-63
2022/02/07 01:05:29;;;;;;;0.20;0.20;;;;;;;4.32;100.00;94218.25;5072522;28;20115;-64
2022/02/07 01:07:57;;;;;;;0.20;0.20;;;;;;;4.30;100.00;94220.38;5072555;28;20140;-64
2022/02/07 01:10:28;;;;;;;0.20;0.20;;;;;;;4.28;100.00;94225.13;5072491;28;20035;-63
2022/02/07 01:15:30;;;;;;;0.20;0.20;;;;;;;4.32;100.00;94306.56;5072792;28;20039;-66
2022/02/07 01:48:48;;;;;;;0.85;0.20;;;;;;;3.81;100.00;94436.69;5072103;28;20127;-63
2022/02/07 01:56:37;;;;;;;0.30;0.20;;;;;;;3.75;100.00;94463.06;5072428;28;20060;-63
2022/02/07 01:59:06;;;;;;;0.30;0.20;;;;;;;3.72;100.00;94476.78;5071994;28;20103;-65
2022/02/07 02:01:34;;;;;;;0.20;0.20;;;;;;;3.71;100.00;94491.06;5071041;28;20051;-62
2022/02/07 02:04:05;;;;;;;0.20;0.20;;;;;;;3.69;100.00;94485.22;5072007;28;20142;-65
2022/02/07 02:06:35;;;;;;;0.35;0.20;;;;;;;3.72;100.00;94482.09;5071941;28;20036;-64
2022/02/07 02:09:02;;;;;;;0.30;0.30;;;;;;;3.79;100.00;94493.31;5071846;28;20047;-65
2022/02/07 02:11:29;;;;;;;0.20;0.20;;;;;;;3.85;100.00;94493.44;5070537;28;20032;-63
2022/02/07 02:16:47;;;;;;;0.47;0.30;;;;;;;3.88;100.00;94525.53;5071967;28;20063;-62
2022/02/07 02:37:55;;;;;;;0.20;0.20;;;;;;;3.78;100.00;94541.25;5075519;28;20415;-61
2022/02/07 02:45:43;;;;;;;0.20;0.20;;;;;;;3.72;100.00;94593.31;5074385;28;20028;-62
2022/02/07 02:48:24;;;;;;;0.25;0.20;;;;;;;3.67;100.00;94595.84;5074880;28;20029;-63
2022/02/07 02:50:52;;;;;;;0.20;0.13;;;;;;;3.62;100.00;94601.06;5074890;28;20032;-65
2022/02/07 02:53:19;;;;;;;0.10;0.10;;;;;;;3.59;100.00;94619.28;5073983;28;20475;-61
2022/02/07 02:55:46;;;;;;;0.20;0.20;;;;;;;3.56;100.00;94646.19;5075517;28;20430;-62
2022/02/07 02:58:18;;;;;;;0.30;0.20;;;;;;;3.56;100.00;94641.69;5075182;28;20074;-63
2022/02/07 03:00:47;;;;;;;0.20;0.20;;;;;;;3.53;100.00;94636.06;5075047;28;20035;-60
2022/02/07 03:03:15;;;;;;;0.40;0.20;;;;;;;3.42;100.00;94688.00;5075087;28;20103;-63
2022/02/07 03:05:46;;;;;;;0.20;0.20;;;;;;;2.92;100.00;94710.34;5075476;28;20575;-60
2022/02/07 03:08:16;;;;;;;0.20;0.20;;;;;;;2.48;100.00;94713.41;5074967;28;20024;-62
2022/02/07 03:13:14;;;;;;;0.10;0.10;;;;;;;2.07;100.00;94762.50;5074679;28;20020;-62
2022/02/07 03:18:28;;;;;;;0.15;0.15;;;;;;;1.85;100.00;94780.59;5073798;28;20040;-63
2022/02/07 03:20:57;;;;;;;0.20;0.20;;;;;;;1.77;100.00;94793.28;5074354;28;20048;-62
2022/02/07 03:23:23;;;;;;;0.28;0.20;;;;;;;1.74;100.00;94813.81;5074390;28;20017;-64
2022/02/07 03:25:49;;;;;;;0.20;0.20;;;;;;;1.73;100.00;94819.28;5074383;28;20104;-62
2022/02/07 03:28:19;;;;;;;0.28;0.20;;;;;;;1.71;100.00;94837.19;5074265;28;20037;-62
2022/02/07 03:30:51;;;;;;;0.22;0.20;;;;;;;1.68;100.00;94842.91;5073066;28;20021;-65
2022/02/07 03:33:23;;;;;;;0.30;0.20;;;;;;;1.70;100.00;94846.94;5074217;28;20029;-59
2022/02/07 03:35:49;;;;;;;0.20;0.20;;;;;;;1.67;100.00;94863.22;5072960;28;20039;-63
2022/02/07 03:38:15;;;;;;;0.52;0.20;;;;;;;1.66;100.00;94874.81;5073672;28;20024;-64
2022/02/07 03:40:40;;;;;;;0.20;0.20;;;;;;;1.58;100.00;94845.22;5074140;28;20059;-61
2022/02/07 03:43:06;;;;;;;0.40;0.20;;;;;;;1.56;100.00;94849.91;5072828;28;20024;-62
2022/02/07 03:45:31;;;;;;;0.45;0.20;;;;;;;1.52;100.00;94838.97;5072879;28;20029;-63
2022/02/07 03:48:02;;;;;;;0.43;0.28;;;;;;;1.50;100.00;94848.09;5056105;28;20517;-64
2022/02/07 03:50:29;;;;;;;2.15;0.22;;;;;;;1.44;100.00;94847.94;5073799;28;20063;-62
2022/02/07 03:52:55;;;;;;;0.30;0.25;;;;;;;1.44;100.00;94862.97;5072462;28;20025;-63
2022/02/07 03:55:20;;;;;;;0.22;0.22;;;;;;;1.42;100.00;94870.31;5072439;28;20051;-61
2022/02/07 03:57:52;;;;;;;0.20;0.20;;;;;;;1.35;100.00;94880.09;5073543;28;20066;-63
2022/02/07 04:00:18;;;;;;;0.30;0.30;;;;;;;1.30;100.00;94887.81;5073670;28;20107;-60
2022/02/07 04:02:50;;;;;;;0.20;0.20;;;;;;;1.22;100.00;94902.09;5072556;28;20123;-63
2022/02/07 04:08:04;;;;;;;0.20;0.20;;;;;;;1.04;100.00;94899.31;5073551;28;20093;-62
2022/02/07 04:10:36;;;;;;;0.20;0.20;;;;;;;0.96;100.00;94918.00;5073339;28;20028;-60
2022/02/07 04:13:03;;;;;;;0.50;0.20;;;;;;;0.88;100.00;94936.72;5073454;28;20459;-61
2022/02/07 04:15:29;;;;;;;0.20;0.20;;;;;;;0.79;100.00;94951.97;5073181;28;20025;-64
2022/02/07 04:17:59;;;;;;;1.33;0.20;;;;;;;0.68;100.00;94949.97;5072131;28;20020;-63
2022/02/07 04:20:25;;;;;;;0.20;0.20;;;;;;;0.59;100.00;94965.19;5071746;28;20140;-61
2022/02/07 04:22:50;;;;;;;0.20;0.20;;;;;;;0.49;100.00;94980.59;5073194;28;20099;-62
2022/02/07 04:25:18;;;;;;;0.30;0.30;;;;;;;0.41;100.00;94988.72;5072190;28;20059;-63
2022/02/07 04:27:44;;;;;;;0.20;0.20;;;;;;;0.28;100.00;94990.34;5073122;28;20031;-63
2022/02/07 04:30:12;;;;;;;0.60;0.40;;;;;;;0.14;100.00;94993.19;5072886;28;20044;-61
2022/02/07 04:32:38;;;;;;;0.55;0.28;;;;;;;0.03;100.00;94996.44;5071723;28;20033;-62
2022/02/07 04:35:05;;;;;;;0.30;0.30;;;;;;;-0.11;100.00;95009.59;5072874;28;20487;-61
2022/02/07 04:37:30;;;;;;;0.20;0.20;;;;;;;-0.25;100.00;95015.81;5073019;28;20074;-63
2022/02/07 04:39:56;;;;;;;0.43;0.20;;;;;;;-0.37;100.00;95028.75;5071629;28;20414;-61
2022/02/07 04:42:24;;;;;;;0.20;0.20;;;;;;;-0.37;100.00;95047.16;5072890;28;20107;-61
2022/02/07 04:45:07;;;;;;;1.55;0.20;;;;;;;-0.40;100.00;95068.63;5071310;28;20030;-60
2022/02/07 04:58:00;;;;;;;0.38;0.20;;;;;;;-0.24;100.00;95095.59;5072559;28;20408;-65
2022/02/07 05:03:20;;;;;;;1.02;0.50;;;;;;;0.22;100.00;95093.91;5072894;28;20027;-63
2022/02/07 05:13:47;;;;;;;0.60;0.40;;;;;;;0.55;100.00;95109.75;5072599;28;20020;-64
2022/02/07 05:16:31;;;;;;;1.63;0.47;;;;;;;0.47;100.00;95120.47;5072402;28;20033;-62
2022/02/07 05:19:00;;;;;;;2.15;0.60;;;;;;;0.46;100.00;95131.22;5072265;28;20031;-65
2022/02/07 05:21:26;;;;;;;1.92;0.35;;;;;;;0.44;100.00;95147.22;5070859;28;20128;-62
2022/02/07 05:23:53;;;;;;;2.58;0.40;;;;;;;0.41;100.00;95154.72;5054375;28;20559;-60
2022/02/07 05:26:19;;;;;;;1.67;0.47;;;;;;;0.35;100.00;95160.78;5072185;28;20525;-62
2022/02/07 05:28:48;;;;;;;2.83;0.63;;;;;;;0.26;100.00;95165.44;5072161;28;20033;-64
2022/02/07 05:31:14;;;;;;;0.65;0.50;;;;;;;0.26;100.00;95168.06;5072086;28;20103;-61
2022/02/07 05:33:39;;;;;;;2.05;0.55;;;;;;;0.32;100.00;95172.50;5071109;28;20040;-60
2022/02/07 05:36:09;;;;;;;1.95;0.50;;;;;;;0.31;100.00;95176.16;5072171;28;20025;-62
2022/02/07 05:38:38;;;;;;;2.33;0.70;;;;;;;0.26;100.00;95178.59;5070897;28;20030;-63
2022/02/07 05:41:08;;;;;;;1.45;0.40;;;;;;;0.19;100.00;95177.75;5070720;28;20036;-63
2022/02/07 05:43:34;;;;;;;3.45;0.40;;;;;;;0.20;100.00;95176.75;5072105;28;20023;-60
2022/02/07 05:46:00;;;;;;;1.60;0.52;;;;;;;0.19;100.00;95190.94;5071897;28;20059;-62
2022/02/07 05:48:33;;;;;;;1.15;0.30;;;;;;;0.19;100.00;95193.56;5070823;28;20059;-59
2022/02/07 05:50:58;;;;;;;2.05;0.50;;;;;;;0.21;100.00;95199.44;5072365;28;20016;-64
2022/02/07 05:53:31;;;;;;;1.55;0.45;;;;;;;0.25;100.00;95219.13;5070611;28;20116;-64
2022/02/07 05:55:56;;;;;;;1.13;0.50;;;;;;;0.37;100.00;95217.53;5070666;28;20479;-62
2022/02/07 05:58:22;;;;;;;1.75;0.57;;;;;;;0.49;100.00;95217.78;5071931;28;20043;-62
2022/02/07 06:00:49;;;;;;;2.38;0.60;;;;;;;0.48;100.00;95226.69;5072123;28;20036;-62
2022/02/07 06:03:18;;;;;;;1.52;0.60;;;;;;;0.44;100.00;95233.38;5075229;28;20024;-61
2022/02/07 06:05:44;;;;;;;2.83;0.70;;;;;;;0.48;100.00;95245.94;5075897;28;20055;-60
2022/02/07 06:08:09;;;;;;;3.47;0.68;;;;;;;0.54;100.00;95250.44;5074437;28;20056;-62
2022/02/07 06:10:35;;;;;;;5.05;0.50;;;;;;;0.54;100.00;95250.44;5075618;28;20029;-62
2022/02/07 06:13:11;;;;;;;0.82;0.47;;;;;;;0.52;100.00;95256.91;5075658;28;20031;-59
2022/02/07 06:15:37;;;;;;;3.92;0.68;;;;;;;0.52;100.00;95244.53;5074347;28;20029;-61
2022/02/07 06:18:02;;;;;;;2.65;0.60;;;;;;;0.60;100.00;95251.44;5075697;28;20020;-61
2022/02/07 06:20:29;;;;;;;1.77;0.70;;;;;;;0.62;100.00;95259.97;5096344;22;20044;-66
2022/02/07 06:22:58;;;;;;;6.50;0.60;;;;;;;0.60;100.00;95261.19;5074596;28;20055;-66
2022/02/07 06:25:25;;;;;;;2.60;0.57;;;;;;;0.64;100.00;95265.84;5073771;28;20051;-66
2022/02/07 06:27:53;;;;;;;1.70;0.40;;;;;;;0.68;100.00;95269.72;5075552;28;20494;-66
2022/02/07 06:30:18;;;;;;;5.70;0.75;;;;;;;0.74;100.00;95284.75;5075212;28;20074;-66
2022/02/07 06:32:51;;;;;;;1.45;0.60;;;;;;;0.78;100.00;95282.53;5054482;28;20025;-66
2022/02/07 06:35:17;;;;;;;4.05;0.80;;;;;;;0.76;100.00;95281.91;5054243;28;20444;-65
2022/02/07 06:37:43;;;;;;;5.65;1.15;;;;;;;0.76;100.00;95281.91;5053780;28;20048;-66
2022/02/07 06:40:09;;;;;;;5.05;0.70;;;;;;;0.77;100.00;95288.81;5053808;28;20107;-66
2022/02/07 06:42:36;;;;;;;1.95;0.68;;;;;;;0.76;100.00;95295.09;5055066;28;20033;-66
2022/02/07 06:45:04;;;;;;;4.03;0.75;;;;;;;0.71;100.00;95300.97;5054644;28;20036;-65
2022/02/07 06:47:29;;;;;;;4.25;0.90;;;;;;;0.67;100.00;95306.84;5061499;28;20025;-66
2022/02/07 06:49:55;;;;;;;3.08;0.77;;;;;;;0.64;100.00;95325.66;5059803;28;20033;-65
2022/02/07 06:52:20;;;;;;;3.38;0.80;;;;;;;0.54;100.00;95321.59;5061532;28;20021;-66
2022/02/07 06:54:45;;;;;;;2.22;0.80;;;;;;;0.42;100.00;95344.22;5074917;28;20029;-65
2022/02/07 06:57:14;;;;;;;3.28;0.60;;;;;;;0.28;100.00;95346.00;5068311;28;20390;-67
2022/02/07 06:59:41;;;;;;;2.22;0.60;;;;;;;0.19;100.00;95359.50;5074748;28;20051;-67
2022/02/07 07:02:08;;;;;;;3.90;0.65;;;;;;;0.12;100.00;95374.47;5060367;28;20029;-67
